Time;durP1;ratioP1;P1;durP2;ratioP2;P2;SDS_P1;SDS_P2;PMS_P1;PMS_P2;Temp;Humidity;BMP_temperature;BMP_pressure;BME280_temperature;BME280_humidity;BME280_pressure;Samples;Min_cycle;Max_cycle;Signal;HPM_P1;HPM_P2
2021/05/30 00:01:22;;;;;;;4.13;2.15;;;;;;;16.40;46.23;94710.00;2975922;39;20048;-70
2021/05/30 00:03:24;;;;;;;2.22;1.40;;;;;;;16.38;46.34;94722.59;2982152;39;20059;-70
2021/05/30 00:05:26;;;;;;;2.63;1.70;;;;;;;16.34;46.26;94723.97;2981316;39;20052;-71
2021/05/30 00:07:28;;;;;;;2.65;1.45;;;;;;;16.31;46.35;94717.25;2981855;39;20055;-70
2021/05/30 00:09:29;;;;;;;2.53;1.50;;;;;;;16.28;46.43;94716.81;2979823;39;20459;-70
2021/05/30 00:11:35;;;;;;;3.90;1.48;;;;;;;16.20;46.87;94712.50;2980900;39;20281;-69
2021/05/30 00:13:52;;;;;;;1.90;1.50;;;;;;;16.19;46.50;94708.22;2980332;39;20060;-71
2021/05/30 00:15:53;;;;;;;2.60;1.50;;;;;;;16.17;46.74;94711.06;2980110;39;20160;-71
2021/05/30 00:17:56;;;;;;;5.25;1.58;;;;;;;16.11;46.80;94713.66;2980043;39;20076;-72
2021/05/30 00:19:58;;;;;;;2.25;1.48;;;;;;;16.08;46.79;94708.75;2979993;39;20060;-72
2021/05/30 00:21:59;;;;;;;3.35;1.50;;;;;;;15.99;46.98;94707.28;2980917;39;20050;-72
2021/05/30 00:24:01;;;;;;;2.95;1.40;;;;;;;16.00;46.87;94714.19;2980462;39;20063;-72
2021/05/30 00:26:04;;;;;;;1.70;1.23;;;;;;;16.03;46.88;94713.81;2981504;39;20311;-72
2021/05/30 00:28:06;;;;;;;4.57;1.30;;;;;;;16.03;47.08;94711.19;2981092;39;20063;-71
2021/05/30 00:30:08;;;;;;;2.00;1.30;;;;;;;16.01;46.71;94713.19;2980566;39;20091;-70
2021/05/30 00:32:10;;;;;;;4.38;1.33;;;;;;;16.04;46.74;94705.69;2981159;39;20051;-71
2021/05/30 00:34:13;;;;;;;2.17;1.70;;;;;;;15.99;46.66;94713.38;2981401;39;20047;-72
2021/05/30 00:36:16;;;;;;;1.85;1.20;;;;;;;15.91;46.91;94714.31;2974058;39;20052;-71
2021/05/30 00:38:17;;;;;;;3.15;1.30;;;;;;;15.92;46.87;94705.41;2981412;39;20052;-72
2021/05/30 00:40:21;;;;;;;3.70;1.48;;;;;;;15.94;46.84;94713.97;2980586;39;20144;-72
2021/05/30 00:42:23;;;;;;;4.07;1.63;;;;;;;15.88;47.28;94712.06;2979097;39;20056;-72
2021/05/30 00:44:27;;;;;;;4.78;1.30;;;;;;;15.88;46.86;94716.56;2975201;39;20124;-71
2021/05/30 00:46:30;;;;;;;1.50;1.10;;;;;;;15.83;47.08;94706.56;2979067;39;20048;-71
2021/05/30 00:48:31;;;;;;;2.15;1.30;;;;;;;15.82;47.06;94706.75;2980588;39;20056;-71
2021/05/30 00:50:33;;;;;;;3.58;1.45;;;;;;;15.84;47.27;94708.19;2975005;39;20137;-71
2021/05/30 00:52:35;;;;;;;3.13;1.48;;;;;;;15.84;47.04;94715.28;2978244;39;20482;-70
2021/05/30 00:54:38;;;;;;;1.77;1.25;;;;;;;15.72;47.31;94707.91;2973422;39;20151;-70
2021/05/30 00:56:40;;;;;;;2.42;1.30;;;;;;;15.76;47.61;94703.03;2969312;39;20095;-71
2021/05/30 00:58:42;;;;;;;2.50;1.45;;;;;;;15.78;47.53;94711.56;2976378;39;20071;-71
2021/05/30 01:00:44;;;;;;;4.18;1.30;;;;;;;15.74;47.58;94705.03;2976851;39;20412;-72
2021/05/30 01:02:46;;;;;;;6.10;1.75;;;;;;;15.71;47.67;94714.16;2967626;39;20505;-71
2021/05/30 01:04:49;;;;;;;2.22;1.23;;;;;;;15.68;48.04;94711.06;2973678;39;20071;-71
2021/05/30 01:06:55;;;;;;;3.23;1.20;;;;;;;15.63;48.08;94708.16;2966567;40;20056;-70
2021/05/30 01:08:58;;;;;;;1.50;1.25;;;;;;;15.72;47.92;94707.06;2971369;40;20060;-70
2021/05/30 01:11:01;;;;;;;;;;;;;;;15.69;47.79;94710.88;2974345;39;20136;-69
2021/05/30 01:13:04;;;;;;;2.10;1.45;;;;;;;15.66;47.86;94716.53;2974941;39;20024;-71
2021/05/30 01:15:07;;;;;;;3.13;1.10;;;;;;;15.67;47.79;94704.97;2974835;39;20060;-71
2021/05/30 01:17:09;;;;;;;3.40;1.50;;;;;;;15.63;47.76;94702.88;2972815;40;20161;-70
2021/05/30 01:19:13;;;;;;;3.83;1.30;;;;;;;15.61;47.64;94708.34;2972186;39;20083;-71
2021/05/30 01:21:16;;;;;;;1.80;1.40;;;;;;;15.55;47.62;94717.03;2970411;39;20054;-71
2021/05/30 01:23:18;;;;;;;1.65;1.20;;;;;;;15.57;47.88;94709.75;2972849;40;20060;-71
2021/05/30 01:25:22;;;;;;;2.53;1.30;;;;;;;15.59;47.67;94712.19;2974664;39;20144;-70
2021/05/30 01:27:24;;;;;;;2.55;1.23;;;;;;;15.46;48.17;94710.25;2962089;40;20368;-71
2021/05/30 01:29:26;;;;;;;2.80;1.20;;;;;;;15.39;48.31;94712.03;2972464;40;20084;-71
2021/05/30 01:31:46;;;;;;;1.52;1.08;;;;;;;15.48;47.96;94710.88;2973525;39;20060;-71
2021/05/30 01:33:48;;;;;;;3.63;1.30;;;;;;;15.44;47.96;94721.00;2973834;40;20079;-71
2021/05/30 01:35:49;;;;;;;2.35;1.55;;;;;;;15.31;48.19;94710.31;2974885;39;20064;-70
2021/05/30 01:37:51;;;;;;;1.85;1.20;;;;;;;15.31;48.57;94719.03;2975684;39;20354;-69
2021/05/30 01:39:53;;;;;;;4.00;1.38;;;;;;;15.34;48.39;94715.22;2971545;40;20173;-71
2021/05/30 01:41:55;;;;;;;2.33;1.42;;;;;;;15.36;48.45;94718.50;2973653;39;20072;-70
2021/05/30 01:43:56;;;;;;;2.47;1.40;;;;;;;15.32;48.63;94704.84;2970600;39;20057;-70
2021/05/30 01:45:59;;;;;;;2.53;1.20;;;;;;;15.26;48.38;94712.69;2972052;39;20474;-70
2021/05/30 01:48:03;;;;;;;2.03;1.40;;;;;;;15.30;48.74;94703.41;2968805;39;20068;-69
2021/05/30 01:50:07;;;;;;;2.65;1.55;;;;;;;15.29;48.55;94705.25;2971348;39;20059;-71
2021/05/30 01:52:10;;;;;;;3.05;1.20;;;;;;;15.26;48.37;94702.97;2966734;40;20088;-70
2021/05/30 01:54:15;;;;;;;2.10;1.20;;;;;;;15.27;48.70;94707.25;2972291;39;20060;-70
2021/05/30 01:58:40;;;;;;;24.02;2.65;;;;;;;15.14;48.79;94705.28;2974998;39;20059;-71
2021/05/30 02:00:44;;;;;;;2.50;1.50;;;;;;;15.08;49.05;94699.94;2968563;39;20101;-71
2021/05/30 02:02:55;;;;;;;4.50;1.42;;;;;;;15.10;49.42;94709.28;2971897;39;20065;-70
2021/05/30 02:04:57;;;;;;;3.00;1.45;;;;;;;15.17;49.21;94711.19;2972593;39;20116;-70
2021/05/30 02:06:59;;;;;;;2.50;1.30;;;;;;;15.19;49.08;94714.47;2973731;39;20088;-69
2021/05/30 02:09:03;;;;;;;3.38;1.42;;;;;;;15.20;49.17;94708.97;2968704;39;20126;-69
2021/05/30 02:11:07;;;;;;;1.55;0.98;;;;;;;15.31;49.05;94699.75;2965089;40;20441;-72
2021/05/30 02:13:11;;;;;;;3.08;1.27;;;;;;;15.33;48.96;94700.38;2967467;39;20063;-69
2021/05/30 02:15:13;;;;;;;3.28;1.60;;;;;;;15.33;48.83;94703.03;2968500;40;20052;-70
2021/05/30 02:17:15;;;;;;;3.22;1.50;;;;;;;15.30;48.90;94701.56;2972870;39;20058;-69
2021/05/30 02:19:16;;;;;;;2.03;1.38;;;;;;;15.35;48.93;94701.81;2971724;39;20052;-71
2021/05/30 02:21:18;;;;;;;1.88;1.20;;;;;;;15.37;48.57;94712.19;2974652;39;20043;-70
2021/05/30 02:23:20;;;;;;;2.15;1.52;;;;;;;15.36;48.91;94705.31;2972647;40;20069;-71
2021/05/30 02:25:21;;;;;;;2.97;1.60;;;;;;;15.42;48.68;94707.16;2972142;39;20100;-69
2021/05/30 02:27:24;;;;;;;4.90;2.03;;;;;;;15.44;48.27;94705.16;2967772;40;20127;-71
2021/05/30 02:29:39;;;;;;;4.25;1.50;;;;;;;15.52;48.04;94707.66;2972065;39;20132;-71
2021/05/30 02:31:41;;;;;;;2.50;1.20;;;;;;;15.47;48.13;94707.44;2970654;39;20064;-83
2021/05/30 02:33:42;;;;;;;5.07;2.13;;;;;;;15.45;47.85;94708.63;2976093;39;20048;-82
2021/05/30 02:35:44;;;;;;;2.55;1.63;;;;;;;15.37;48.17;94706.91;2976051;39;20057;-78
2021/05/30 02:37:46;;;;;;;6.15;1.30;;;;;;;15.39;47.97;94709.38;2973634;40;20417;-78
2021/05/30 02:39:48;;;;;;;2.20;1.40;;;;;;;15.33;48.12;94703.81;2976286;39;20100;-81
2021/05/30 02:41:50;;;;;;;2.70;1.27;;;;;;;15.28;48.47;94713.34;2975089;40;20084;-82
2021/05/30 02:43:51;;;;;;;2.30;1.33;;;;;;;15.18;48.91;94715.44;2974902;39;20048;-81
2021/05/30 02:45:53;;;;;;;1.92;1.30;;;;;;;15.12;48.84;94709.09;2979097;39;20052;-81
2021/05/30 02:47:55;;;;;;;2.63;1.40;;;;;;;15.15;48.75;94708.72;2973703;39;20056;-78
2021/05/30 02:49:58;;;;;;;1.95;1.27;;;;;;;15.14;49.04;94717.63;2970887;39;20059;-82
2021/05/30 02:52:00;;;;;;;2.67;1.70;;;;;;;15.17;48.60;94713.84;2970774;39;20409;-80
2021/05/30 02:54:02;;;;;;;3.30;1.63;;;;;;;15.13;48.85;94713.38;2970647;39;20156;-82
2021/05/30 02:56:04;;;;;;;3.50;1.40;;;;;;;15.11;48.93;94718.03;2972824;39;20443;-81
2021/05/30 02:58:06;;;;;;;4.57;1.83;;;;;;;15.19;48.99;94717.91;2973712;39;20066;-82
2021/05/30 03:00:09;;;;;;;5.60;1.60;;;;;;;15.21;48.94;94715.06;2979049;39;20056;-79
2021/05/30 03:02:11;;;;;;;2.20;1.33;;;;;;;15.13;49.18;94713.38;2976512;39;20159;-80
2021/05/30 03:04:12;;;;;;;2.15;1.23;;;;;;;15.08;49.12;94719.22;2976487;40;20136;-80
2021/05/30 03:06:14;;;;;;;2.20;1.42;;;;;;;15.12;49.17;94712.56;2971206;39;20134;-82
2021/05/30 03:08:16;;;;;;;2.55;1.60;;;;;;;15.15;49.12;94711.38;2973852;39;20083;-80
2021/05/30 03:10:18;;;;;;;2.42;1.38;;;;;;;15.12;49.31;94707.28;2975157;40;20159;-82
2021/05/30 03:12:20;;;;;;;2.17;1.40;;;;;;;15.10;49.51;94711.94;2975750;39;20377;-80
2021/05/30 03:14:21;;;;;;;3.88;1.40;;;;;;;15.01;49.88;94712.22;2976500;39;20063;-81
2021/05/30 03:16:24;;;;;;;2.47;1.40;;;;;;;15.05;49.71;94709.03;2974206;39;20104;-81
2021/05/30 03:18:26;;;;;;;2.30;1.60;;;;;;;15.04;49.61;94715.31;2972507;40;20436;-80
2021/05/30 03:20:29;;;;;;;2.13;1.33;;;;;;;15.05;49.79;94716.94;2975231;39;20403;-71
2021/05/30 03:22:30;;;;;;;2.10;1.27;;;;;;;15.08;49.82;94710.50;2973359;39;20102;-70
2021/05/30 03:24:32;;;;;;;1.77;1.42;;;;;;;15.07;49.58;94719.41;2974140;39;20345;-70
2021/05/30 03:26:35;;;;;;;2.92;1.27;;;;;;;15.04;49.94;94711.88;2971878;39;20436;-69
2021/05/30 03:28:37;;;;;;;2.22;1.80;;;;;;;15.08;49.76;94713.13;2974196;40;20064;-70
2021/05/30 03:30:39;;;;;;;2.28;1.40;;;;;;;15.02;50.01;94713.88;2974413;39;20071;-70
2021/05/30 03:32:40;;;;;;;3.58;1.65;;;;;;;15.00;49.98;94715.88;2974110;39;20061;-70
2021/05/30 03:34:42;;;;;;;2.00;1.40;;;;;;;14.98;49.85;94710.78;2974373;39;20403;-70
2021/05/30 03:36:47;;;;;;;2.47;1.27;;;;;;;14.98;49.84;94710.78;2972426;39;20444;-70
2021/05/30 03:38:50;;;;;;;2.33;1.30;;;;;;;15.04;49.59;94714.50;2973856;39;20064;-70
2021/05/30 03:41:10;;;;;;;2.92;1.52;;;;;;;15.09;49.29;94712.94;2974918;39;20409;-70
2021/05/30 03:43:12;;;;;;;4.28;1.35;;;;;;;15.14;49.41;94712.38;2971049;39;20053;-71
2021/05/30 03:45:14;;;;;;;3.13;1.80;;;;;;;15.09;49.55;94712.94;2965039;40;20361;-69
2021/05/30 03:47:16;;;;;;;2.08;1.30;;;;;;;15.02;49.86;94717.31;2969189;39;20078;-70
2021/05/30 03:49:17;;;;;;;3.70;1.55;;;;;;;15.01;50.01;94720.94;2973697;39;20056;-71
2021/05/30 03:51:19;;;;;;;3.10;1.77;;;;;;;15.05;50.07;94722.22;2974319;40;20127;-70
2021/05/30 03:53:21;;;;;;;2.40;1.80;;;;;;;15.08;49.92;94724.50;2970044;39;20143;-70
2021/05/30 03:55:23;;;;;;;2.15;1.33;;;;;;;15.17;49.63;94721.75;2974239;40;20052;-71
2021/05/30 03:57:25;;;;;;;3.03;1.50;;;;;;;15.20;49.59;94716.09;2974131;39;20349;-71
2021/05/30 03:59:27;;;;;;;4.07;1.77;;;;;;;15.23;49.34;94713.91;2972791;39;20416;-72
2021/05/30 04:01:29;;;;;;;2.85;1.70;;;;;;;15.21;49.50;94712.44;2967664;39;20102;-70
2021/05/30 04:03:31;;;;;;;4.75;1.38;;;;;;;15.18;49.43;94720.72;2968560;39;20064;-70
2021/05/30 04:05:33;;;;;;;2.58;1.60;;;;;;;15.05;49.65;94722.22;2973381;40;20385;-70
2021/05/30 04:07:36;;;;;;;3.22;1.38;;;;;;;15.03;49.53;94724.22;2974550;40;20055;-70
2021/05/30 04:09:38;;;;;;;4.13;1.50;;;;;;;15.00;49.71;94716.69;2967786;39;20148;-70
2021/05/30 04:11:39;;;;;;;3.17;1.50;;;;;;;14.97;50.09;94718.88;2969994;39;20056;-69
2021/05/30 04:13:41;;;;;;;3.10;1.77;;;;;;;15.03;49.68;94724.22;2971199;39;20060;-70
2021/05/30 04:15:43;;;;;;;3.38;1.40;;;;;;;15.07;49.93;94719.41;2971327;39;20113;-69
2021/05/30 04:17:45;;;;;;;2.97;1.50;;;;;;;15.15;49.71;94722.75;2965598;40;20064;-71
2021/05/30 04:19:47;;;;;;;3.42;1.83;;;;;;;15.18;49.41;94715.44;2971434;39;20235;-69
2021/05/30 04:21:50;;;;;;;3.50;1.40;;;;;;;15.14;49.52;94722.91;2968974;39;20148;-69
2021/05/30 04:23:52;;;;;;;3.00;1.60;;;;;;;15.08;50.15;94710.50;2972814;39;20093;-71
2021/05/30 04:25:53;;;;;;;3.80;1.40;;;;;;;14.98;50.27;94731.88;2969443;39;20056;-69
2021/05/30 04:27:55;;;;;;;2.67;1.60;;;;;;;15.03;50.15;94723.41;2971816;39;20095;-70
2021/05/30 04:29:57;;;;;;;2.35;1.40;;;;;;;15.02;50.34;94722.59;2972120;40;20060;-71
2021/05/30 04:32:02;;;;;;;1.95;1.50;;;;;;;14.98;50.14;94721.31;2972688;39;20176;-70
2021/05/30 04:34:04;;;;;;;4.45;1.83;;;;;;;15.10;50.08;94711.94;2970854;40;20409;-71
2021/05/30 04:36:06;;;;;;;4.93;1.70;;;;;;;15.06;50.23;94723.88;2966624;39;20060;-70
2021/05/30 04:38:07;;;;;;;2.28;1.40;;;;;;;15.13;50.17;94716.03;2973126;40;20092;-71
2021/05/30 04:40:10;;;;;;;3.05;1.73;;;;;;;15.18;50.07;94716.25;2975454;39;20240;-70
2021/05/30 04:42:12;;;;;;;5.88;1.70;;;;;;;15.24;49.92;94720.00;2974854;39;20067;-70
2021/05/30 04:44:13;;;;;;;2.08;1.50;;;;;;;15.22;50.12;94712.25;2970603;39;20060;-72
2021/05/30 04:46:15;;;;;;;3.45;1.55;;;;;;;15.28;49.83;94708.88;2970490;39;20666;-69
2021/05/30 04:48:17;;;;;;;4.65;1.70;;;;;;;15.40;49.60;94709.19;2971032;40;20048;-70
2021/05/30 04:50:19;;;;;;;2.22;1.30;;;;;;;15.52;49.46;94707.66;2972597;39;20140;-71
2021/05/30 04:52:20;;;;;;;2.75;1.40;;;;;;;15.52;49.26;94706.84;2970900;39;20047;-71
2021/05/30 04:54:22;;;;;;;2.60;1.40;;;;;;;15.54;48.98;94705.66;2973390;39;20184;-70
2021/05/30 04:56:24;;;;;;;2.65;1.38;;;;;;;15.59;49.21;94706.91;2966470;40;20068;-69
2021/05/30 04:58:26;;;;;;;3.35;1.30;;;;;;;15.51;49.21;94705.25;2973632;39;20058;-71
2021/05/30 05:00:28;;;;;;;3.03;1.45;;;;;;;15.55;48.94;94699.38;2974279;39;20056;-71
2021/05/30 05:02:30;;;;;;;2.90;1.80;;;;;;;15.57;49.05;94699.19;2969241;39;20352;-70
2021/05/30 05:04:32;;;;;;;2.33;1.50;;;;;;;15.59;49.34;94707.72;2974933;39;20056;-69
2021/05/30 05:06:33;;;;;;;2.45;1.52;;;;;;;15.61;48.98;94707.53;2969007;39;20117;-69
2021/05/30 05:08:35;;;;;;;2.33;1.38;;;;;;;15.70;48.84;94703.75;2974401;39;20047;-70
2021/05/30 05:10:37;;;;;;;3.35;1.40;;;;;;;15.76;48.79;94709.13;2973259;39;20132;-71
2021/05/30 05:12:39;;;;;;;1.77;1.20;;;;;;;15.81;48.75;94708.56;2974316;40;20477;-69
2021/05/30 05:14:40;;;;;;;3.90;1.88;;;;;;;15.89;48.56;94707.59;2973410;39;20056;-70
2021/05/30 05:16:42;;;;;;;3.35;1.70;;;;;;;15.93;48.59;94707.03;2968203;39;20448;-69
2021/05/30 05:18:44;;;;;;;3.08;1.83;;;;;;;15.85;48.30;94717.75;2970863;39;20073;-70
2021/05/30 05:20:46;;;;;;;3.40;1.40;;;;;;;15.95;48.30;94715.56;2972858;39;20051;-71
2021/05/30 05:22:48;;;;;;;3.10;1.75;;;;;;;15.73;48.67;94720.06;2973401;39;20109;-71
2021/05/30 05:24:50;;;;;;;2.78;1.40;;;;;;;15.67;48.40;94720.00;2973561;39;20055;-70
2021/05/30 05:26:51;;;;;;;2.58;1.73;;;;;;;15.77;48.37;94713.41;2969113;39;20140;-71
2021/05/30 05:28:53;;;;;;;3.08;1.48;;;;;;;15.86;48.28;94714.09;2972685;40;20140;-70
2021/05/30 05:30:55;;;;;;;4.00;1.95;;;;;;;15.86;48.63;94718.56;2974369;40;20405;-70
2021/05/30 05:32:59;;;;;;;2.85;1.58;;;;;;;15.84;48.23;94716.09;2975394;39;20095;-70
2021/05/30 05:35:01;;;;;;;2.00;1.63;;;;;;;15.65;48.37;94719.38;2972997;39;20079;-71
2021/05/30 05:37:03;;;;;;;5.15;1.65;;;;;;;15.55;48.12;94717.88;2975500;40;20056;-70
2021/05/30 05:39:05;;;;;;;1.95;1.40;;;;;;;15.56;48.37;94730.06;2975351;39;20128;-69
2021/05/30 05:41:07;;;;;;;2.90;1.60;;;;;;;15.55;48.28;94724.94;2973611;39;20109;-69
2021/05/30 05:43:09;;;;;;;3.05;1.75;;;;;;;15.64;48.23;94726.47;2976290;39;20103;-70
2021/05/30 05:45:11;;;;;;;2.30;1.60;;;;;;;15.67;48.08;94730.56;2980239;39;20131;-69
2021/05/30 05:47:13;;;;;;;2.25;1.50;;;;;;;15.65;48.72;94728.09;2973993;39;20058;-70
2021/05/30 05:49:15;;;;;;;2.13;1.52;;;;;;;15.63;48.45;94730.09;2973097;39;20056;-70
2021/05/30 05:51:17;;;;;;;2.80;1.35;;;;;;;15.65;48.87;94730.75;2969722;39;20417;-81
2021/05/30 05:53:18;;;;;;;2.42;1.60;;;;;;;15.83;47.79;94738.25;2975194;40;20421;-81
2021/05/30 05:55:21;;;;;;;2.25;1.55;;;;;;;15.79;46.79;94742.28;2978053;39;20128;-82
2021/05/30 05:57:23;;;;;;;2.95;1.60;;;;;;;15.92;47.19;94733.66;2977206;40;20052;-81
2021/05/30 05:59:25;;;;;;;2.08;1.48;;;;;;;15.44;48.85;94736.81;2970938;39;20328;-81
2021/05/30 06:01:27;;;;;;;2.45;1.70;;;;;;;15.00;50.45;94740.44;2970753;39;20056;-83
2021/05/30 06:03:29;;;;;;;6.90;1.80;;;;;;;14.72;51.51;94735.84;2970386;39;20056;-82
2021/05/30 06:05:31;;;;;;;4.28;1.65;;;;;;;14.84;51.40;94728.28;2975967;39;20076;-81
2021/05/30 06:07:38;;;;;;;5.25;1.90;;;;;;;15.12;49.42;94733.69;2970861;39;20136;-82
2021/05/30 06:09:40;;;;;;;3.60;1.67;;;;;;;15.42;48.47;94728.28;2976267;39;20352;-81
2021/05/30 06:11:42;;;;;;;2.28;1.60;;;;;;;15.68;47.54;94726.91;2973696;40;20083;-82
2021/05/30 06:13:44;;;;;;;3.20;1.55;;;;;;;15.77;47.04;94731.09;2973759;39;20056;-80
2021/05/30 06:15:46;;;;;;;2.72;1.60;;;;;;;15.75;47.51;94743.66;2975280;39;20062;-80
2021/05/30 06:18:06;;;;;;;2.45;1.65;;;;;;;15.77;46.60;94736.38;2977806;39;20063;-83
2021/05/30 06:20:08;;;;;;;3.33;1.50;;;;;;;15.90;46.66;94731.19;2970461;40;20064;-81
2021/05/30 06:22:10;;;;;;;7.93;1.60;;;;;;;16.04;46.73;94729.47;2976398;39;20160;-83
2021/05/30 06:24:12;;;;;;;3.58;1.30;;;;;;;16.21;46.64;94730.00;2976840;40;20457;-83
2021/05/30 06:26:13;;;;;;;6.03;1.48;;;;;;;16.31;46.31;94738.41;2974779;39;20208;-81
2021/05/30 06:28:15;;;;;;;3.63;1.48;;;;;;;16.04;46.52;94747.16;2971321;39;20052;-81
2021/05/30 06:30:18;;;;;;;3.45;1.60;;;;;;;15.97;46.52;94736.53;2973432;39;20092;-80
2021/05/30 06:32:20;;;;;;;5.87;1.60;;;;;;;16.08;46.59;94743.13;2979484;39;20124;-84
2021/05/30 06:34:21;;;;;;;3.03;1.67;;;;;;;16.12;46.54;94744.38;2979509;39;20058;-80
2021/05/30 06:36:23;;;;;;;4.03;1.70;;;;;;;15.09;49.06;94759.59;2980092;39;20408;-84
2021/05/30 06:38:25;;;;;;;2.20;1.50;;;;;;;15.06;49.29;94752.06;2979456;39;20091;-83
2021/05/30 06:40:27;;;;;;;3.97;2.13;;;;;;;15.17;49.53;94756.88;2977461;39;20164;-81
2021/05/30 06:42:29;;;;;;;3.42;1.58;;;;;;;15.18;49.42;94755.84;2971291;39;20436;-82
2021/05/30 06:44:31;;;;;;;2.00;1.50;;;;;;;14.65;50.49;94763.94;2975883;39;20060;-82
2021/05/30 06:46:33;;;;;;;2.47;1.50;;;;;;;14.41;51.11;94772.06;2977663;39;20132;-80
2021/05/30 06:48:35;;;;;;;3.50;1.63;;;;;;;14.39;52.02;94755.63;2976712;39;20156;-82
2021/05/30 06:50:37;;;;;;;3.30;1.85;;;;;;;14.73;52.17;94750.66;2976289;39;20048;-80
2021/05/30 06:52:39;;;;;;;3.17;1.42;;;;;;;14.74;50.70;94764.66;2975525;39;20068;-83
2021/05/30 06:54:41;;;;;;;2.78;2.17;;;;;;;14.94;50.99;94759.63;2977794;40;20070;-81
2021/05/30 06:56:43;;;;;;;2.92;2.13;;;;;;;14.94;50.88;94764.91;2970834;39;20056;-83
2021/05/30 06:58:44;;;;;;;2.92;1.98;;;;;;;14.81;50.93;94767.38;2975296;39;20097;-83
2021/05/30 07:00:46;;;;;;;5.38;2.25;;;;;;;14.60;51.54;94770.75;2977035;39;20385;-81
2021/05/30 07:02:49;;;;;;;4.78;1.60;;;;;;;14.56;51.85;94764.19;2975275;39;20415;-83
2021/05/30 07:04:51;;;;;;;4.20;1.90;;;;;;;15.00;50.73;94777.34;2975309;39;20088;-83
2021/05/30 07:06:54;;;;;;;3.55;2.40;;;;;;;14.89;51.82;94780.47;2972727;40;20058;-83
2021/05/30 07:08:56;;;;;;;4.43;2.03;;;;;;;14.70;52.30;94774.75;2977333;39;20044;-84
2021/05/30 07:10:57;;;;;;;2.78;1.92;;;;;;;14.46;52.36;94781.06;2972665;39;20266;-83
2021/05/30 07:12:59;;;;;;;4.75;2.35;;;;;;;14.25;52.91;94776.50;2970806;39;20428;-84
2021/05/30 07:15:02;;;;;;;4.05;1.70;;;;;;;14.28;52.60;94780.59;2972398;39;20078;-85
2021/05/30 07:17:04;;;;;;;3.97;1.75;;;;;;;14.41;52.44;94779.97;2975994;39;20326;-82
2021/05/30 07:19:06;;;;;;;2.88;1.70;;;;;;;14.73;51.11;94769.13;2975186;39;20084;-81
2021/05/30 07:21:08;;;;;;;7.13;1.80;;;;;;;15.08;50.92;94773.81;2971290;40;20136;-82
2021/05/30 07:23:09;;;;;;;8.57;2.40;;;;;;;15.32;50.09;94773.47;2975862;39;20417;-82
2021/05/30 07:25:12;;;;;;;3.88;1.77;;;;;;;14.89;50.86;94768.09;2973970;39;20095;-82
2021/05/30 07:27:13;;;;;;;2.83;1.80;;;;;;;15.38;50.32;94776.34;2977392;39;20044;-82
2021/05/30 07:29:16;;;;;;;3.15;1.52;;;;;;;15.64;48.78;94773.16;2976309;40;20071;-81
2021/05/30 07:31:18;;;;;;;3.75;1.77;;;;;;;15.61;48.76;94768.28;2977115;39;20392;-82
2021/05/30 07:33:20;;;;;;;2.67;1.60;;;;;;;15.72;47.50;94763.34;2977823;39;20404;-83
2021/05/30 07:35:22;;;;;;;2.17;1.50;;;;;;;15.58;48.46;94761.56;2976152;40;20424;-84
2021/05/30 07:37:24;;;;;;;3.08;1.88;;;;;;;15.29;49.90;94773.00;2975857;39;20068;-83
2021/05/30 07:39:25;;;;;;;2.63;1.70;;;;;;;15.61;47.22;94770.91;2975949;39;20067;-83
2021/05/30 07:41:27;;;;;;;2.47;1.60;;;;;;;15.87;46.62;94773.81;2976162;39;20060;-81
2021/05/30 07:43:29;;;;;;;3.03;1.77;;;;;;;15.97;46.40;94758.47;2975682;39;20048;-80
2021/05/30 07:45:31;;;;;;;3.05;1.67;;;;;;;15.35;47.79;94769.63;2970441;39;20423;-84
2021/05/30 07:47:33;;;;;;;2.97;1.73;;;;;;;14.88;48.70;94763.81;2976473;39;20066;-84
2021/05/30 07:49:35;;;;;;;4.30;1.83;;;;;;;15.01;48.71;94757.88;2970086;40;20063;-82
2021/05/30 07:51:37;;;;;;;3.90;1.65;;;;;;;15.05;48.83;94755.69;2974206;39;20055;-83
2021/05/30 07:53:39;;;;;;;2.88;1.83;;;;;;;15.04;48.71;94765.44;2979475;39;20081;-82
2021/05/30 07:55:42;;;;;;;2.55;1.80;;;;;;;15.00;48.99;94758.91;2977333;39;20133;-82
2021/05/30 07:57:47;;;;;;;2.75;1.85;;;;;;;15.27;48.56;94765.31;2970336;40;20072;-84
2021/05/30 07:59:49;;;;;;;3.78;2.00;;;;;;;15.63;48.07;94760.97;2972978;39;20054;-84
2021/05/30 08:01:51;;;;;;;2.63;1.70;;;;;;;15.97;46.86;94757.66;2976735;39;20208;-82
2021/05/30 08:03:53;;;;;;;2.42;1.80;;;;;;;16.40;45.73;94747.00;2969606;40;20063;-82
2021/05/30 08:05:55;;;;;;;2.80;1.75;;;;;;;16.60;45.77;94741.81;2968741;39;20093;-82
2021/05/30 08:07:57;;;;;;;2.55;1.60;;;;;;;16.61;45.35;94742.66;2974510;39;20117;-84
2021/05/30 08:09:59;;;;;;;4.70;1.85;;;;;;;16.76;45.47;94740.69;2975733;39;20110;-83
2021/05/30 08:12:01;;;;;;;2.65;1.60;;;;;;;16.99;44.44;94740.41;2977529;39;20059;-83
2021/05/30 08:14:04;;;;;;;2.03;1.50;;;;;;;17.04;44.14;94738.00;2969545;40;20079;-83
2021/05/30 08:16:17;;;;;;;3.58;1.30;;;;;;;17.35;43.50;94731.38;2976562;39;20138;-82
2021/05/30 08:18:20;;;;;;;2.30;1.35;;;;;;;17.70;42.79;94720.63;2962089;40;20149;-83
2021/05/30 08:20:23;;;;;;;3.13;1.85;;;;;;;17.71;43.07;94725.72;2972029;39;20051;-81
2021/05/30 08:22:25;;;;;;;5.70;2.60;;;;;;;17.08;44.67;94728.66;2976243;39;20178;-81
2021/05/30 08:24:26;;;;;;;2.08;1.35;;;;;;;17.45;43.24;94720.41;2971261;39;20403;-84
2021/05/30 08:26:28;;;;;;;3.78;1.60;;;;;;;17.65;43.07;94726.53;2970034;39;20068;-82
2021/05/30 08:28:30;;;;;;;2.38;1.77;;;;;;;17.34;43.21;94748.28;2971767;39;20051;-82
2021/05/30 08:30:32;;;;;;;5.50;1.70;;;;;;;17.49;44.35;94734.88;2976717;39;20064;-82
2021/05/30 08:32:35;;;;;;;3.75;2.08;;;;;;;17.67;42.87;94726.34;2976936;39;20366;-81
2021/05/30 08:34:37;;;;;;;4.25;1.58;;;;;;;17.70;42.36;94731.22;2975522;39;20435;-82
2021/05/30 08:36:40;;;;;;;2.05;1.27;;;;;;;17.58;42.87;94731.00;2976182;39;20079;-79
2021/05/30 08:38:43;;;;;;;3.05;1.60;;;;;;;17.71;43.05;94732.88;2970345;40;20051;-82
2021/05/30 08:40:45;;;;;;;2.65;1.70;;;;;;;17.49;43.77;94735.69;2976012;39;20067;-86
2021/05/30 08:42:47;;;;;;;3.03;1.67;;;;;;;17.58;43.95;94741.63;2968761;40;20196;-83
2021/05/30 08:44:50;;;;;;;4.75;2.20;;;;;;;17.30;44.18;94739.91;2973877;39;20197;-81
2021/05/30 08:46:52;;;;;;;5.07;2.53;;;;;;;16.49;45.71;94745.81;2967442;40;20453;-82
2021/05/30 08:48:58;;;;;;;4.68;2.20;;;;;;;16.62;45.93;94739.78;2976969;40;20052;-84
2021/05/30 08:51:08;;;;;;;2.30;1.77;;;;;;;16.77;45.46;94737.84;2976469;39;20114;-80
2021/05/30 08:53:10;;;;;;;4.90;1.70;;;;;;;17.21;44.77;94735.81;2977893;39;20398;-82
2021/05/30 08:55:12;;;;;;;2.45;1.60;;;;;;;17.48;44.28;94739.34;2974171;39;20057;-81
2021/05/30 08:57:14;;;;;;;6.53;3.83;;;;;;;17.37;44.69;94732.78;2978544;39;20086;-82
2021/05/30 08:59:31;;;;;;;4.03;3.03;;;;;;;16.13;46.92;94738.06;2971777;39;20063;-84
2021/05/30 09:01:41;;;;;;;5.65;2.17;;;;;;;16.52;46.70;94736.69;2972682;39;20056;-83
2021/05/30 09:04:06;;;;;;;4.03;2.13;;;;;;;16.85;46.36;94730.81;2977793;39;20269;-82
2021/05/30 09:06:14;;;;;;;;;;;;;;;17.24;45.02;94727.47;2978487;40;20348;-82
2021/05/30 09:08:30;;;;;;;4.32;2.03;;;;;;;17.48;44.22;94731.38;2973773;39;20166;-83
2021/05/30 09:10:32;;;;;;;3.35;2.13;;;;;;;16.96;44.58;94740.81;2973994;39;20148;-83
2021/05/30 09:12:43;;;;;;;2.80;1.80;;;;;;;16.45;45.76;94733.19;2970754;40;20055;-84
2021/05/30 09:14:49;;;;;;;2.97;2.15;;;;;;;16.62;45.22;94736.34;2977151;39;20051;-83
2021/05/30 09:16:57;;;;;;;2.25;1.60;;;;;;;16.91;44.27;94733.47;2976204;39;20080;-82
2021/05/30 09:18:59;;;;;;;2.10;1.40;;;;;;;17.16;44.21;94727.66;2977866;39;20079;-83
2021/05/30 09:21:03;;;;;;;2.60;1.70;;;;;;;17.49;44.12;94725.09;2967968;40;20059;-83
2021/05/30 09:23:05;;;;;;;3.00;1.98;;;;;;;17.86;42.94;94708.88;2966783;40;20048;-83
2021/05/30 09:25:14;;;;;;;4.07;2.08;;;;;;;18.00;42.82;94719.25;2974430;39;20049;-81
2021/05/30 09:27:20;;;;;;;2.70;1.58;;;;;;;17.77;43.51;94708.22;2970427;39;20056;-82
2021/05/30 09:29:22;;;;;;;4.43;1.90;;;;;;;18.04;43.17;94710.88;2975033;40;20048;-81
2021/05/30 09:31:24;;;;;;;2.65;1.88;;;;;;;18.27;42.84;94710.47;2968073;39;20318;-81
2021/05/30 09:33:29;;;;;;;3.13;2.15;;;;;;;18.57;42.18;94713.47;2970867;39;20166;-82
2021/05/30 09:35:37;;;;;;;3.40;1.55;;;;;;;18.54;41.24;94705.91;2974487;39;20088;-84
2021/05/30 09:37:40;;;;;;;2.42;1.52;;;;;;;17.43;43.07;94709.19;2968863;39;20148;-83
2021/05/30 09:39:43;;;;;;;5.53;1.92;;;;;;;17.36;43.78;94710.00;2961221;40;20053;-71
2021/05/30 09:41:52;;;;;;;2.40;1.58;;;;;;;17.75;43.00;94708.41;2966654;40;20040;-71